Time;durP1;ratioP1;P1;durP2;ratioP2;P2;SDS_P1;SDS_P2;PMS_P1;PMS_P2;Temp;Humidity;BMP_temperature;BMP_pressure;BME280_temperature;BME280_humidity;BME280_pressure;Samples;Min_cycle;Max_cycle;Signal;HPM_P1;HPM_P2
2022/04/26 03:38:29;;;;;;;;;;;14.20;74.20;;;;;;5017081;28;19977;-58
2022/04/26 03:40:56;;;;;;;;;;;14.30;74.20;;;;;;5016761;28;19909;-58
2022/04/26 03:43:22;;;;;;;;;;;14.50;72.90;;;;;;5016666;28;19923;-59
2022/04/26 03:45:48;;;;;;;;;;;14.50;73.00;;;;;;5017089;28;19909;-58
2022/04/26 03:48:14;;;;;;;;;;;14.40;72.40;;;;;;5016612;28;19935;-58
2022/04/26 03:50:40;;;;;;;;;;;14.40;72.50;;;;;;5016645;28;19975;-57
2022/04/26 03:53:05;;;;;;;;;;;14.40;72.60;;;;;;5016739;28;20306;-59
2022/04/26 03:55:31;;;;;;;;;;;14.40;72.40;;;;;;5016491;28;19917;-58
2022/04/26 03:57:57;;;;;;;;;;;14.30;72.60;;;;;;5016126;28;20368;-58
2022/04/26 04:00:23;;;;;;;;;;;14.40;71.80;;;;;;5016527;28;20008;-58
2022/04/26 04:02:49;;;;;;;;;;;14.40;72.50;;;;;;5016222;28;19960;-58
2022/04/26 04:05:14;;;;;;;;;;;14.50;71.80;;;;;;5016294;28;20381;-58
2022/04/26 04:07:40;;;;;;;;;;;14.50;72.10;;;;;;5015485;28;20333;-58
2022/04/26 04:10:06;;;;;;;;;;;14.40;71.60;;;;;;5015418;28;19955;-58
2022/04/26 04:12:31;;;;;;;;;;;14.40;72.40;;;;;;5016112;28;20397;-58
2022/04/26 04:14:57;;;;;;;;;;;14.50;72.00;;;;;;5016338;28;20416;-58
2022/04/26 04:17:23;;;;;;;;;;;14.50;72.10;;;;;;5015971;28;19918;-57
2022/04/26 04:19:48;;;;;;;;;;;14.30;72.60;;;;;;5016304;28;19945;-59
2022/04/26 04:22:14;;;;;;;;;;;14.40;74.60;;;;;;5015908;28;19921;-58
2022/04/26 04:24:40;;;;;;;;;;;14.40;75.10;;;;;;5015853;28;20005;-59
2022/04/26 04:27:05;;;;;;;;;;;14.30;75.90;;;;;;5015916;28;19916;-60
2022/04/26 04:29:31;;;;;;;;;;;14.20;76.60;;;;;;5016047;28;19909;-59
2022/04/26 04:31:56;;;;;;;;;;;14.20;77.40;;;;;;5016000;28;19910;-58
2022/04/26 04:34:22;;;;;;;;;;;14.20;77.40;;;;;;5015627;28;19914;-58
2022/04/26 04:36:48;;;;;;;;;;;14.20;78.40;;;;;;5015650;28;20016;-58
2022/04/26 04:39:19;;;;;;;;;;;14.20;77.50;;;;;;5015624;28;19944;-58
2022/04/26 04:41:46;;;;;;;;;;;14.30;76.00;;;;;;5015402;28;19913;-58
2022/04/26 04:44:11;;;;;;;;;;;14.40;74.60;;;;;;5015437;28;20309;-58
2022/04/26 04:46:37;;;;;;;;;;;14.50;74.10;;;;;;5015845;28;19909;-59
2022/04/26 04:49:03;;;;;;;;;;;14.50;73.10;;;;;;5015645;28;19917;-58
2022/04/26 04:51:28;;;;;;;;;;;14.60;72.60;;;;;;5015736;28;20298;-58
2022/04/26 04:53:54;;;;;;;;;;;14.70;72.60;;;;;;5015194;28;19909;-58
2022/04/26 04:56:20;;;;;;;;;;;14.70;72.80;;;;;;5015349;28;19918;-58
2022/04/26 04:58:46;;;;;;;;;;;14.70;72.70;;;;;;5015391;28;19913;-58
2022/04/26 05:01:12;;;;;;;;;;;14.60;72.80;;;;;;5014972;28;20004;-59
2022/04/26 05:03:37;;;;;;;;;;;14.70;73.20;;;;;;5015088;28;19937;-58
2022/04/26 05:06:03;;;;;;;;;;;14.80;72.40;;;;;;5015042;28;19953;-58
2022/04/26 05:08:28;;;;;;;;;;;14.80;72.30;;;;;;5015236;28;19909;-58
2022/04/26 05:10:54;;;;;;;;;;;14.80;72.90;;;;;;5014917;28;20408;-59
2022/04/26 05:13:20;;;;;;;;;;;14.80;73.60;;;;;;5014945;28;19909;-57
2022/04/26 05:15:45;;;;;;;;;;;14.80;74.70;;;;;;5015849;28;19909;-59
2022/04/26 05:18:14;;;;;;;;;;;14.80;75.50;;;;;;5015541;28;19913;-57
2022/04/26 05:20:39;;;;;;;;;;;14.80;75.40;;;;;;5014420;28;19909;-58
2022/04/26 05:25:49;;;;;;;;;;;14.90;77.40;;;;;;5015136;28;19916;-58
2022/04/26 05:28:15;;;;;;;;;;;14.90;77.40;;;;;;5014925;28;20004;-59
2022/04/26 05:30:40;;;;;;;;;;;14.80;77.30;;;;;;5014845;28;20353;-58
2022/04/26 05:33:06;;;;;;;;;;;14.80;77.10;;;;;;5014613;28;19909;-58
2022/04/26 05:35:32;;;;;;;;;;;14.70;75.60;;;;;;5014748;28;19910;-58
2022/04/26 05:37:57;;;;;;;;;;;14.80;77.00;;;;;;5014308;28;19921;-58
2022/04/26 05:40:23;;;;;;;;;;;14.80;76.00;;;;;;5014588;28;19909;-58
2022/04/26 05:42:48;;;;;;;;;;;15.00;74.50;;;;;;5014473;28;19909;-57
2022/04/26 05:45:14;;;;;;;;;;;15.00;74.20;;;;;;5014591;28;19916;-58
2022/04/26 05:47:45;;;;;;;;;;;15.10;73.40;;;;;;5014456;28;19910;-59
2022/04/26 05:50:12;;;;;;;;;;;15.10;73.30;;;;;;5014528;28;19917;-58
2022/04/26 05:52:37;;;;;;;;;;;15.20;72.90;;;;;;5014116;28;19917;-60
2022/04/26 05:55:04;;;;;;;;;;;15.30;73.00;;;;;;5014523;28;19913;-59
2022/04/26 05:57:35;;;;;;;;;;;15.30;72.40;;;;;;5014224;28;19917;-59
2022/04/26 06:00:04;;;;;;;;;;;15.40;73.40;;;;;;5013908;28;20376;-57
2022/04/26 06:02:29;;;;;;;;;;;15.70;73.90;;;;;;5013867;28;19910;-60
2022/04/26 06:04:55;;;;;;;;;;;15.80;71.60;;;;;;5013997;28;19917;-59
2022/04/26 06:07:20;;;;;;;;;;;15.80;71.60;;;;;;5014000;28;19933;-60
2022/04/26 06:09:46;;;;;;;;;;;15.90;71.20;;;;;;5013737;28;19971;-57
2022/04/26 06:12:12;;;;;;;;;;;16.00;71.00;;;;;;5014007;28;19910;-59
2022/04/26 06:14:38;;;;;;;;;;;16.00;70.10;;;;;;5013858;28;19917;-58
2022/04/26 06:17:03;;;;;;;;;;;16.00;70.70;;;;;;5013736;28;19968;-60
2022/04/26 06:19:29;;;;;;;;;;;16.20;69.80;;;;;;5013695;28;19914;-59
2022/04/26 06:21:54;;;;;;;;;;;16.20;69.40;;;;;;5013399;28;20007;-59
2022/04/26 06:24:20;;;;;;;;;;;16.20;69.60;;;;;;5014096;28;19936;-59
2022/04/26 06:26:45;;;;;;;;;;;16.20;69.40;;;;;;5013625;28;19910;-59
2022/04/26 06:29:11;;;;;;;;;;;16.20;69.60;;;;;;5013821;28;20005;-59
2022/04/26 06:31:37;;;;;;;;;;;16.30;70.40;;;;;;5014402;28;20362;-57
2022/04/26 06:34:02;;;;;;;;;;;16.50;69.00;;;;;;5017666;28;19989;-60
2022/04/26 06:36:28;;;;;;;;;;;16.70;68.90;;;;;;5017534;28;19963;-57
2022/04/26 06:38:53;;;;;;;;;;;16.80;67.40;;;;;;5017618;28;19914;-57
2022/04/26 06:41:19;;;;;;;;;;;16.90;66.60;;;;;;5017476;28;19910;-60
2022/04/26 06:43:45;;;;;;;;;;;16.90;67.50;;;;;;5017387;28;19909;-56
2022/04/26 06:46:10;;;;;;;;;;;16.90;66.50;;;;;;5017651;28;19928;-59
2022/04/26 06:48:36;;;;;;;;;;;16.90;66.00;;;;;;5017598;28;19910;-58
2022/04/26 06:51:01;;;;;;;;;;;16.80;66.30;;;;;;5017478;28;20277;-58
2022/04/26 06:53:27;;;;;;;;;;;16.70;66.50;;;;;;5017524;28;20000;-59
2022/04/26 06:55:53;;;;;;;;;;;16.60;65.90;;;;;;5017431;28;20044;-56
2022/04/26 06:58:20;;;;;;;;;;;16.50;65.90;;;;;;5017314;28;19917;-59
2022/04/26 07:00:46;;;;;;;;;;;16.40;66.20;;;;;;5017282;28;20409;-60
2022/04/26 07:03:12;;;;;;;;;;;16.50;66.90;;;;;;5016663;28;19945;-60
2022/04/26 07:05:38;;;;;;;;;;;16.60;67.50;;;;;;5016762;28;19921;-60
2022/04/26 07:08:03;;;;;;;;;;;16.60;66.90;;;;;;5016595;28;19956;-56
2022/04/26 07:10:29;;;;;;;;;;;16.60;67.30;;;;;;5016665;28;19929;-59
2022/04/26 07:12:55;;;;;;;;;;;16.70;67.30;;;;;;5016521;28;19909;-59
2022/04/26 07:15:21;;;;;;;;;;;16.70;67.50;;;;;;5016543;28;19960;-58
2022/04/26 07:17:46;;;;;;;;;;;16.70;67.50;;;;;;5016261;28;19965;-57
2022/04/26 07:20:12;;;;;;;;;;;16.80;66.20;;;;;;5016167;28;19910;-60
2022/04/26 07:22:38;;;;;;;;;;;16.80;65.90;;;;;;5015599;28;19925;-63
2022/04/26 07:25:07;;;;;;;;;;;17.00;65.60;;;;;;5015050;28;20369;-64
2022/04/26 07:27:33;;;;;;;;;;;17.10;65.70;;;;;;5013839;28;20012;-57
2022/04/26 07:29:58;;;;;;;;;;;17.30;65.10;;;;;;5015131;28;19944;-59
2022/04/26 07:34:20;;;;;;;;;;;17.40;63.00;;;;;;5014966;28;19909;-58
2022/04/26 07:35:10;;;;;;;;;;;17.50;63.00;;;;;;5013915;28;19981;-61
2022/04/26 07:37:36;;;;;;;;;;;17.60;63.40;;;;;;5012143;28;20016;-59
2022/04/26 07:40:02;;;;;;;;;;;17.60;62.50;;;;;;5014921;28;19909;-59
2022/04/26 07:42:28;;;;;;;;;;;17.50;62.90;;;;;;5014519;28;19909;-58
2022/04/26 07:44:53;;;;;;;;;;;17.50;63.20;;;;;;5014574;28;19910;-63
2022/04/26 07:47:22;;;;;;;;;;;17.50;63.30;;;;;;5014856;28;20381;-63
2022/04/26 07:49:48;;;;;;;;;;;17.50;63.90;;;;;;5014646;28;19917;-67
2022/04/26 07:52:15;;;;;;;;;;;17.60;63.40;;;;;;5014910;28;19913;-64
2022/04/26 07:54:41;;;;;;;;;;;17.60;63.30;;;;;;5015471;28;19963;-62
2022/04/26 07:57:07;;;;;;;;;;;17.60;63.70;;;;;;5016767;28;20281;-63
2022/04/26 07:59:33;;;;;;;;;;;17.80;63.30;;;;;;5015110;28;19920;-61
2022/04/26 08:01:59;;;;;;;;;;;18.00;61.80;;;;;;5014994;28;19913;-60
2022/04/26 08:04:24;;;;;;;;;;;18.20;60.70;;;;;;5014552;28;19948;-59
2022/04/26 08:06:50;;;;;;;;;;;18.20;60.20;;;;;;5014591;28;19921;-61
2022/04/26 08:09:15;;;;;;;;;;;18.40;59.80;;;;;;5014652;28;19963;-59
2022/04/26 08:11:41;;;;;;;;;;;18.30;59.30;;;;;;5014511;28;19910;-59
2022/04/26 08:14:07;;;;;;;;;;;18.10;61.00;;;;;;5014635;28;20362;-61
2022/04/26 08:16:32;;;;;;;;;;;18.30;61.10;;;;;;5014507;28;19991;-60
2022/04/26 08:18:58;;;;;;;;;;;18.40;60.10;;;;;;5014530;28;20277;-59
2022/04/26 08:21:23;;;;;;;;;;;18.70;59.40;;;;;;4984661;28;852091;-60
2022/04/26 08:29:18;;;;;;;;;;;18.70;58.40;;;;;;5013952;28;19932;-59
2022/04/26 08:31:43;;;;;;;;;;;18.60;58.30;;;;;;5015550;28;20358;-61
2022/04/26 08:34:09;;;;;;;;;;;18.50;59.00;;;;;;5015566;28;19917;-62
2022/04/26 08:36:34;;;;;;;;;;;18.60;59.30;;;;;;5015576;28;20358;-62
2022/04/26 08:39:00;;;;;;;;;;;18.60;58.70;;;;;;5015435;28;19921;-62
2022/04/26 08:41:26;;;;;;;;;;;18.50;58.80;;;;;;5015329;28;20293;-63
2022/04/26 08:43:51;;;;;;;;;;;18.20;59.00;;;;;;5015595;28;20255;-61
2022/04/26 08:46:17;;;;;;;;;;;18.20;59.20;;;;;;5015657;28;20242;-60
2022/04/26 08:51:40;;;;;;;;;;;17.90;59.80;;;;;;4979951;28;19920;-61
2022/04/26 08:54:06;;;;;;;;;;;17.80;60.30;;;;;;5014090;28;20003;-61
2022/04/26 08:56:32;;;;;;;;;;;17.90;60.00;;;;;;5014882;28;19914;-61
2022/04/26 08:58:57;;;;;;;;;;;17.90;60.40;;;;;;5015042;28;19913;-64
2022/04/26 09:01:24;;;;;;;;;;;17.90;59.70;;;;;;5014427;28;19949;-67
2022/04/26 09:03:59;;;;;;;;;;;17.80;60.40;;;;;;5013325;28;20008;-60
2022/04/26 09:06:43;;;;;;;;;;;17.90;59.60;;;;;;5013662;28;19913;-62
2022/04/26 09:09:12;;;;;;;;;;;17.90;59.90;;;;;;5016037;28;19909;-66
2022/04/26 09:11:38;;;;;;;;;;;17.90;60.10;;;;;;5014961;28;19917;-64
2022/04/26 09:14:04;;;;;;;;;;;17.80;59.90;;;;;;5014074;28;19913;-62
2022/04/26 09:16:30;;;;;;;;;;;17.60;60.90;;;;;;5013848;28;19921;-60
2022/04/26 09:18:56;;;;;;;;;;;17.50;60.50;;;;;;5014414;28;20376;-61
2022/04/26 09:21:26;;;;;;;;;;;17.60;61.20;;;;;;5014624;28;20004;-60
2022/04/26 09:23:52;;;;;;;;;;;17.60;61.30;;;;;;5014525;28;19917;-59
2022/04/26 09:26:18;;;;;;;;;;;17.60;61.20;;;;;;5014950;28;19910;-59
2022/04/26 09:28:50;;;;;;;;;;;17.60;61.20;;;;;;5014531;28;19963;-60
2022/04/26 09:31:20;;;;;;;;;;;17.70;60.60;;;;;;5014357;28;19924;-59
2022/04/26 09:33:49;;;;;;;;;;;17.70;61.10;;;;;;5013079;28;19932;-60
2022/04/26 09:36:17;;;;;;;;;;;17.80;60.40;;;;;;5014569;28;19917;-60
2022/04/26 09:38:54;;;;;;;;;;;17.80;61.10;;;;;;5014236;28;19921;-58
2022/04/26 09:41:20;;;;;;;;;;;17.90;60.00;;;;;;5014215;28;19963;-59
2022/04/26 09:44:04;;;;;;;;;;;17.90;59.60;;;;;;5013031;28;19909;-60
2022/04/26 09:46:45;;;;;;;;;;;17.90;59.30;;;;;;5014242;28;19910;-60
2022/04/26 09:49:12;;;;;;;;;;;17.80;59.00;;;;;;5014179;28;19913;-60
2022/04/26 09:51:38;;;;;;;;;;;17.80;59.00;;;;;;5014145;28;19929;-60
2022/04/26 09:54:04;;;;;;;;;;;17.70;59.10;;;;;;5014075;28;19917;-61
2022/04/26 09:56:30;;;;;;;;;;;17.70;59.30;;;;;;5013820;28;19913;-60
2022/04/26 09:58:57;;;;;;;;;;;17.70;59.00;;;;;;5013756;28;19936;-60
2022/04/26 10:01:27;;;;;;;;;;;17.70;59.40;;;;;;5013968;28;19909;-60
2022/04/26 10:03:56;;;;;;;;;;;17.60;60.20;;;;;;5013424;28;19960;-61
2022/04/26 10:06:22;;;;;;;;;;;17.50;61.80;;;;;;5013942;28;19914;-60
2022/04/26 10:08:48;;;;;;;;;;;17.50;64.20;;;;;;5013525;28;19909;-63
2022/04/26 10:11:15;;;;;;;;;;;17.40;65.50;;;;;;5013930;28;19910;-63
2022/04/26 10:13:43;;;;;;;;;;;17.30;66.20;;;;;;5013672;28;20393;-59
2022/04/26 10:16:10;;;;;;;;;;;17.30;66.70;;;;;;5013660;28;20377;-62
2022/04/26 10:18:43;;;;;;;;;;;17.20;67.50;;;;;;5013737;28;19969;-58
2022/04/26 10:21:09;;;;;;;;;;;17.20;69.80;;;;;;5013329;28;19944;-58
2022/04/26 10:23:54;;;;;;;;;;;17.10;70.80;;;;;;5013490;28;20008;-58
2022/04/26 10:26:23;;;;;;;;;;;17.10;71.80;;;;;;5013675;28;19909;-60
2022/04/26 10:28:50;;;;;;;;;;;16.90;72.10;;;;;;5013828;28;20372;-60
2022/04/26 10:31:17;;;;;;;;;;;16.60;71.00;;;;;;5013968;28;19910;-59
2022/04/26 10:33:44;;;;;;;;;;;16.60;72.30;;;;;;5013789;28;19960;-57
2022/04/26 10:36:19;;;;;;;;;;;16.60;70.90;;;;;;5014440;28;19913;-60
2022/04/26 10:39:03;;;;;;;;;;;16.20;70.40;;;;;;5014240;28;19913;-59
2022/04/26 10:41:33;;;;;;;;;;;16.30;70.40;;;;;;5013841;28;19916;-58
2022/04/26 10:44:19;;;;;;;;;;;16.30;69.60;;;;;;5012775;28;20004;-59
2022/04/26 10:47:09;;;;;;;;;;;16.50;68.70;;;;;;5010922;28;20263;-61
2022/04/26 10:49:43;;;;;;;;;;;16.60;66.80;;;;;;5011936;28;19955;-57
2022/04/26 10:52:10;;;;;;;;;;;16.60;65.30;;;;;;5011193;28;20001;-62
2022/04/26 10:54:45;;;;;;;;;;;16.60;64.80;;;;;;5012945;28;19910;-59
2022/04/26 10:57:11;;;;;;;;;;;16.70;66.00;;;;;;5011785;28;20013;-59
2022/04/26 10:59:44;;;;;;;;;;;17.00;66.10;;;;;;5013730;28;19910;-57
2022/04/26 11:02:11;;;;;;;;;;;17.10;64.80;;;;;;5013290;28;20243;-59
2022/04/26 11:04:37;;;;;;;;;;;16.90;63.10;;;;;;5013764;28;19910;-61
2022/04/26 11:07:13;;;;;;;;;;;16.90;63.00;;;;;;5013538;28;20281;-61
2022/04/26 11:09:46;;;;;;;;;;;17.00;62.30;;;;;;5013379;28;19913;-59
2022/04/26 11:12:12;;;;;;;;;;;17.20;62.40;;;;;;5013375;28;19955;-61
2022/04/26 11:14:41;;;;;;;;;;;17.40;62.70;;;;;;5013721;28;20420;-62
2022/04/26 11:17:06;;;;;;;;;;;17.30;63.10;;;;;;5013188;28;19920;-62
2022/04/26 11:19:36;;;;;;;;;;;17.60;63.80;;;;;;5016903;28;19910;-64
2022/04/26 11:22:13;;;;;;;;;;;17.90;62.50;;;;;;5016223;28;19928;-61
2022/04/26 11:30:08;;;;;;;;;;;18.00;59.50;;;;;;5012135;28;19917;-63
2022/04/26 11:32:35;;;;;;;;;;;17.90;59.60;;;;;;4996872;28;19909;-65
2022/04/26 11:35:01;;;;;;;;;;;17.90;59.20;;;;;;4997021;28;20341;-58
2022/04/26 11:37:26;;;;;;;;;;;17.70;58.70;;;;;;4996982;28;19918;-59
2022/04/26 11:39:52;;;;;;;;;;;17.80;59.60;;;;;;4997021;28;19910;-76
2022/04/26 11:42:19;;;;;;;;;;;18.00;58.90;;;;;;4996879;28;19910;-58
2022/04/26 11:44:58;;;;;;;;;;;18.10;60.10;;;;;;4996759;28;19910;-58
2022/04/26 11:47:43;;;;;;;;;;;18.30;58.30;;;;;;4996677;28;19937;-58
2022/04/26 11:50:10;;;;;;;;;;;18.30;58.00;;;;;;4997140;28;19963;-58
2022/04/26 11:52:35;;;;;;;;;;;18.10;57.90;;;;;;4996708;28;19910;-57
2022/04/26 11:55:01;;;;;;;;;;;18.00;59.30;;;;;;4995332;28;19921;-58
2022/04/26 11:57:28;;;;;;;;;;;17.90;59.00;;;;;;4996260;28;19917;-56
2022/04/26 11:59:53;;;;;;;;;;;17.90;59.50;;;;;;4996481;28;19956;-58
2022/04/26 12:02:19;;;;;;;;;;;18.10;61.00;;;;;;4996478;28;19910;-61
2022/04/26 12:04:45;;;;;;;;;;;18.20;59.50;;;;;;4996482;28;20385;-57
2022/04/26 12:07:11;;;;;;;;;;;18.40;59.90;;;;;;4996316;28;19921;-61
2022/04/26 12:09:37;;;;;;;;;;;18.50;58.60;;;;;;4996298;28;19909;-60
2022/04/26 12:12:04;;;;;;;;;;;18.40;59.70;;;;;;4996077;28;19910;-61
2022/04/26 12:14:30;;;;;;;;;;;18.50;59.80;;;;;;4996352;28;20293;-60
2022/04/26 12:16:56;;;;;;;;;;;18.60;58.50;;;;;;4996049;28;20359;-58
2022/04/26 12:19:37;;;;;;;;;;;18.50;58.10;;;;;;4996060;28;19917;-57
2022/04/26 12:22:03;;;;;;;;;;;18.60;59.50;;;;;;4995815;28;19918;-57
2022/04/26 12:24:30;;;;;;;;;;;18.70;59.00;;;;;;4995848;28;19910;-57
2022/04/26 12:26:59;;;;;;;;;;;18.70;58.20;;;;;;4996253;28;20282;-58
2022/04/26 12:29:26;;;;;;;;;;;18.70;57.40;;;;;;4994853;28;19910;-58
2022/04/26 12:31:52;;;;;;;;;;;18.50;58.60;;;;;;4995894;28;20421;-58
2022/04/26 12:34:19;;;;;;;;;;;18.30;59.20;;;;;;4995809;28;19948;-58
2022/04/26 12:36:54;;;;;;;;;;;18.40;59.90;;;;;;4995716;28;19921;-58
2022/04/26 12:39:20;;;;;;;;;;;18.40;58.80;;;;;;4995704;28;19910;-60
2022/04/26 12:41:46;;;;;;;;;;;18.40;58.00;;;;;;4995530;28;20012;-60
2022/04/26 12:44:12;;;;;;;;;;;17.90;58.10;;;;;;4995773;28;19925;-58
2022/04/26 12:50:28;;;;;;;;;;;17.90;59.80;;;;;;4994274;28;19909;-59
2022/04/26 12:52:34;;;;;;;;;;;18.10;59.80;;;;;;4954466;29;19911;-59
2022/04/26 12:55:00;;;;;;;;;;;18.30;59.40;;;;;;4987041;28;19910;-64
2022/04/26 12:57:26;;;;;;;;;;;18.30;59.20;;;;;;4995767;28;20373;-61
2022/04/26 12:59:51;;;;;;;;;;;18.40;59.50;;;;;;4995241;28;20008;-65
2022/04/26 13:02:17;;;;;;;;;;;18.30;58.90;;;;;;4995478;28;19910;-63
2022/04/26 13:04:42;;;;;;;;;;;18.50;59.50;;;;;;4995257;28;19909;-63
2022/04/26 13:07:08;;;;;;;;;;;18.60;58.70;;;;;;4995055;28;19910;-59
2022/04/26 13:09:33;;;;;;;;;;;18.60;59.10;;;;;;4995320;28;19917;-63
2022/04/26 13:11:59;;;;;;;;;;;18.60;59.20;;;;;;4995509;28;20393;-58
2022/04/26 13:14:26;;;;;;;;;;;18.60;59.10;;;;;;4995400;28;20001;-59
2022/04/26 13:16:52;;;;;;;;;;;18.50;59.20;;;;;;4996005;28;19914;-61
2022/04/26 13:19:17;;;;;;;;;;;18.50;59.60;;;;;;4996087;28;19941;-63
2022/04/26 13:21:43;;;;;;;;;;;18.40;59.60;;;;;;5006192;28;20277;-62
2022/04/26 13:24:10;;;;;;;;;;;18.40;59.90;;;;;;5014771;28;19913;-60
2022/04/26 13:26:36;;;;;;;;;;;18.40;59.30;;;;;;5013778;28;19948;-65
2022/04/26 13:29:03;;;;;;;;;;;18.40;59.90;;;;;;5014040;28;19917;-61
2022/04/26 13:31:29;;;;;;;;;;;18.40;59.50;;;;;;5014232;28;19910;-62
2022/04/26 13:33:56;;;;;;;;;;;18.30;60.20;;;;;;5013977;28;19917;-63
2022/04/26 13:36:22;;;;;;;;;;;18.30;60.50;;;;;;5013952;28;20019;-63
2022/04/26 13:38:47;;;;;;;;;;;18.30;61.70;;;;;;5014126;28;19909;-62
2022/04/26 13:41:13;;;;;;;;;;;18.30;62.00;;;;;;5013619;28;19915;-62
2022/04/26 13:43:41;;;;;;;;;;;18.40;63.00;;;;;;5013862;28;20354;-61
2022/04/26 13:46:07;;;;;;;;;;;18.40;62.50;;;;;;5014137;28;20234;-61
2022/04/26 13:48:33;;;;;;;;;;;18.40;63.10;;;;;;5014184;28;19914;-61
2022/04/26 13:50:58;;;;;;;;;;;18.30;63.90;;;;;;5014366;28;19916;-61
2022/04/26 13:53:24;;;;;;;;;;;18.30;65.10;;;;;;5014083;28;19916;-63
2022/04/26 13:55:49;;;;;;;;;;;18.30;65.60;;;;;;5014541;28;20051;-61
2022/04/26 13:58:15;;;;;;;;;;;18.20;66.40;;;;;;5014097;28;20289;-62
2022/04/26 14:00:40;;;;;;;;;;;18.20;67.50;;;;;;5014282;28;19963;-61
2022/04/26 14:03:06;;;;;;;;;;;18.20;68.10;;;;;;5013925;28;19936;-60
2022/04/26 14:05:33;;;;;;;;;;;18.10;68.70;;;;;;5013880;28;20379;-64
2022/04/26 14:07:58;;;;;;;;;;;18.00;69.30;;;;;;5014052;28;20258;-63
2022/04/26 14:10:24;;;;;;;;;;;18.00;69.70;;;;;;5014144;28;19936;-59
2022/04/26 14:12:49;;;;;;;;;;;17.90;69.80;;;;;;5013715;28;20361;-57
2022/04/26 14:21:47;;;;;;;;;;;17.80;70.80;;;;;;5014316;28;20393;-58
2022/04/26 14:23:42;;;;;;;;;;;17.80;71.10;;;;;;5004916;28;20370;-59
2022/04/26 14:26:08;;;;;;;;;;;17.80;70.40;;;;;;5012775;28;19917;-58
2022/04/26 14:28:33;;;;;;;;;;;17.90;69.60;;;;;;5012654;28;20015;-57
2022/04/26 14:30:59;;;;;;;;;;;17.90;69.50;;;;;;5012525;28;20354;-58
2022/04/26 14:33:25;;;;;;;;;;;17.90;68.60;;;;;;5012351;28;19992;-60
2022/04/26 14:35:51;;;;;;;;;;;17.90;68.70;;;;;;5011591;28;19944;-62
2022/04/26 14:38:17;;;;;;;;;;;17.80;68.20;;;;;;5013654;28;20358;-64
2022/04/26 14:40:43;;;;;;;;;;;17.40;68.90;;;;;;5012144;28;19910;-57
2022/04/26 14:43:09;;;;;;;;;;;17.50;69.80;;;;;;5013046;28;20001;-59
2022/04/26 14:45:45;;;;;;;;;;;17.50;69.50;;;;;;5012364;28;20004;-58
2022/04/26 14:48:11;;;;;;;;;;;17.50;70.20;;;;;;5013251;28;20373;-59
2022/04/26 14:50:40;;;;;;;;;;;17.60;69.00;;;;;;5012572;28;20016;-58
2022/04/26 14:53:06;;;;;;;;;;;17.70;68.30;;;;;;5013780;28;19909;-58
2022/04/26 14:55:32;;;;;;;;;;;17.80;67.90;;;;;;5016389;28;19916;-59
2022/04/26 14:57:57;;;;;;;;;;;17.60;67.50;;;;;;5017186;28;19918;-58
2022/04/26 15:00:23;;;;;;;;;;;17.80;67.60;;;;;;5017273;28;19910;-58
2022/04/26 15:02:49;;;;;;;;;;;17.70;67.80;;;;;;5017144;28;19916;-59
2022/04/26 15:05:14;;;;;;;;;;;17.80;67.30;;;;;;5017200;28;19909;-57
2022/04/26 15:10:24;;;;;;;;;;;18.00;65.40;;;;;;5017150;28;19917;-58
2022/04/26 15:18:20;;;;;;;;;;;18.00;66.00;;;;;;4998435;28;19949;-56
2022/04/26 15:20:48;;;;;;;;;;;18.10;66.20;;;;;;5016902;28;19914;-57
2022/04/26 15:23:15;;;;;;;;;;;18.10;65.90;;;;;;5016518;28;19921;-57
2022/04/26 15:25:41;;;;;;;;;;;18.20;65.00;;;;;;5016732;28;19909;-57
2022/04/26 15:28:08;;;;;;;;;;;18.20;65.30;;;;;;5016750;28;19916;-62
2022/04/26 15:30:40;;;;;;;;;;;18.20;65.40;;;;;;5015906;28;19960;-57
2022/04/26 15:33:05;;;;;;;;;;;18.30;65.20;;;;;;5016641;28;19910;-57
2022/04/26 15:35:31;;;;;;;;;;;18.30;63.80;;;;;;5016526;28;19921;-57
2022/04/26 15:37:57;;;;;;;;;;;18.30;64.00;;;;;;5016636;28;20012;-57
2022/04/26 15:40:22;;;;;;;;;;;18.40;64.10;;;;;;5016407;28;19910;-59
2022/04/26 15:42:48;;;;;;;;;;;18.60;62.40;;;;;;5015927;28;19913;-67
2022/04/26 15:45:13;;;;;;;;;;;18.90;62.10;;;;;;5016751;28;20309;-61
2022/04/26 15:47:39;;;;;;;;;;;18.90;61.50;;;;;;5016459;28;19909;-58
2022/04/26 15:50:05;;;;;;;;;;;19.00;61.80;;;;;;5016595;28;20270;-59
2022/04/26 15:52:31;;;;;;;;;;;19.00;60.80;;;;;;5016229;28;19913;-60
2022/04/26 15:54:56;;;;;;;;;;;19.00;60.10;;;;;;5016791;28;19910;-60
2022/04/26 15:57:22;;;;;;;;;;;19.00;60.70;;;;;;5010290;28;19922;-63
2022/04/26 15:59:48;;;;;;;;;;;19.00;60.20;;;;;;5001717;28;19917;-59
2022/04/26 16:02:13;;;;;;;;;;;18.90;60.00;;;;;;5015773;28;19964;-61
2022/04/26 16:04:39;;;;;;;;;;;18.90;60.30;;;;;;5016086;28;19909;-61
2022/04/26 16:07:04;;;;;;;;;;;19.10;60.00;;;;;;5016196;28;19964;-62
2022/04/26 16:20:41;;;;;;;;;;;19.40;59.40;;;;;;4993378;28;19925;-59
2022/04/26 16:23:07;;;;;;;;;;;19.50;58.50;;;;;;5015492;28;19922;-60
2022/04/26 16:25:33;;;;;;;;;;;19.70;58.30;;;;;;5015708;28;20000;-59
2022/04/26 16:28:00;;;;;;;;;;;19.70;57.60;;;;;;5015274;28;19914;-59
2022/04/26 16:30:29;;;;;;;;;;;19.70;57.60;;;;;;5013846;28;19913;-60
2022/04/26 16:32:55;;;;;;;;;;;19.70;58.50;;;;;;5015350;28;19914;-59
2022/04/26 16:35:21;;;;;;;;;;;19.80;59.90;;;;;;5015142;28;19952;-61
2022/04/26 16:37:47;;;;;;;;;;;19.80;59.40;;;;;;5015506;28;19968;-59
2022/04/26 16:40:12;;;;;;;;;;;19.80;59.80;;;;;;5015444;28;19952;-62
2022/04/26 16:42:38;;;;;;;;;;;19.40;62.60;;;;;;5015158;28;20393;-59
2022/04/26 16:45:04;;;;;;;;;;;18.90;63.90;;;;;;5014937;28;20292;-57
2022/04/26 16:47:30;;;;;;;;;;;18.90;64.70;;;;;;5015096;28;20321;-59
2022/04/26 16:49:55;;;;;;;;;;;18.90;65.00;;;;;;5015102;28;19917;-59
2022/04/26 16:52:21;;;;;;;;;;;18.70;65.10;;;;;;5015179;28;19982;-59
2022/04/26 16:54:47;;;;;;;;;;;18.30;67.30;;;;;;5015272;28;20354;-58
2022/04/26 16:57:12;;;;;;;;;;;17.80;68.00;;;;;;5015147;28;19964;-59
2022/04/26 16:59:38;;;;;;;;;;;17.60;69.60;;;;;;5014828;28;19988;-57
2022/04/26 17:02:03;;;;;;;;;;;17.60;69.50;;;;;;5015204;28;19917;-57
2022/04/26 17:04:30;;;;;;;;;;;17.60;70.00;;;;;;5014592;28;19921;-57
2022/04/26 17:06:57;;;;;;;;;;;17.40;69.50;;;;;;5014797;28;20000;-59
2022/04/26 17:09:23;;;;;;;;;;;17.40;70.40;;;;;;5014902;28;20361;-58
2022/04/26 17:11:48;;;;;;;;;;;17.30;70.50;;;;;;5014905;28;19948;-60
2022/04/26 17:14:15;;;;;;;;;;;17.40;70.40;;;;;;5014441;28;19932;-61
2022/04/26 17:16:42;;;;;;;;;;;17.50;70.40;;;;;;5014070;28;20268;-59
2022/04/26 17:19:08;;;;;;;;;;;17.60;70.60;;;;;;5014825;28;20395;-59
2022/04/26 17:21:33;;;;;;;;;;;17.60;71.30;;;;;;5014261;28;19925;-58
2022/04/26 17:24:01;;;;;;;;;;;17.50;71.50;;;;;;5014510;28;19918;-60
2022/04/26 17:26:26;;;;;;;;;;;17.50;70.90;;;;;;5014801;28;20408;-60
2022/04/26 17:28:55;;;;;;;;;;;17.40;71.10;;;;;;5014746;28;19909;-61
2022/04/26 17:31:21;;;;;;;;;;;17.30;71.40;;;;;;5014284;28;20002;-61
2022/04/26 17:33:50;;;;;;;;;;;17.30;71.90;;;;;;5014842;28;19916;-59
2022/04/26 17:36:18;;;;;;;;;;;17.20;72.00;;;;;;5014644;28;19913;-60
2022/04/26 17:38:44;;;;;;;;;;;17.10;72.50;;;;;;5014632;28;20293;-60
2022/04/26 17:41:10;;;;;;;;;;;17.00;73.30;;;;;;5006178;28;19910;-60
2022/04/26 17:43:36;;;;;;;;;;;16.90;73.70;;;;;;4994577;28;19953;-63
2022/04/26 17:46:02;;;;;;;;;;;16.90;74.10;;;;;;4994851;28;19914;-60
2022/04/26 17:48:27;;;;;;;;;;;16.80;74.50;;;;;;4994471;28;20281;-60
2022/04/26 17:50:53;;;;;;;;;;;16.70;74.60;;;;;;4994601;28;19914;-61
2022/04/26 17:58:47;;;;;;;;;;;16.50;75.90;;;;;;4994535;28;20285;-64
2022/04/26 18:01:13;;;;;;;;;;;16.40;76.10;;;;;;4994428;28;20000;-62
2022/04/26 18:03:38;;;;;;;;;;;16.40;76.30;;;;;;4994345;28;20423;-63
2022/04/26 18:06:05;;;;;;;;;;;16.40;76.40;;;;;;4994602;28;19910;-58
2022/04/26 18:08:30;;;;;;;;;;;16.30;76.50;;;;;;4994362;28;19917;-56
2022/04/26 18:10:57;;;;;;;;;;;16.20;76.90;;;;;;4994301;28;19909;-61
2022/04/26 18:13:24;;;;;;;;;;;16.20;77.30;;;;;;4994362;28;20417;-59
2022/04/26 18:15:54;;;;;;;;;;;16.10;77.70;;;;;;4994127;28;19910;-61
2022/04/26 18:18:24;;;;;;;;;;;16.00;78.10;;;;;;4994256;28;20400;-63
2022/04/26 18:20:50;;;;;;;;;;;15.90;78.40;;;;;;4994228;28;19910;-60
2022/04/26 18:23:16;;;;;;;;;;;15.90;78.60;;;;;;4993949;28;20012;-62
2022/04/26 18:28:25;;;;;;;;;;;15.90;78.60;;;;;;4993377;28;20010;-58
2022/04/26 18:30:51;;;;;;;;;;;15.80;78.90;;;;;;4994155;28;19965;-67
2022/04/26 18:33:17;;;;;;;;;;;15.80;78.90;;;;;;4993703;28;19910;-58
2022/04/26 18:35:42;;;;;;;;;;;15.80;79.00;;;;;;4994705;28;19949;-61
2022/04/26 18:38:09;;;;;;;;;;;15.80;79.10;;;;;;4995018;28;19964;-60
2022/04/26 18:40:35;;;;;;;;;;;15.80;79.30;;;;;;4994083;28;19964;-60
2022/04/26 18:43:00;;;;;;;;;;;15.70;79.60;;;;;;4993732;28;19910;-59
2022/04/26 18:45:26;;;;;;;;;;;15.80;78.90;;;;;;4991942;28;19921;-67